Time;durP1;ratioP1;P1;durP2;ratioP2;P2;SDS_P1;SDS_P2;PMS_P1;PMS_P2;Temp;Humidity;BMP_temperature;BMP_pressure;BME280_temperature;BME280_humidity;BME280_pressure;Samples;Min_cycle;Max_cycle;Signal;HPM_P1;HPM_P2
2023/01/30 00:03:38;;;;;;;29.70;13.90;;;;;;;0.27;100.00;100244.31;213502;1287;139026;-87
2023/01/30 00:09:31;;;;;;;;;;;;;;;;;;;;;
2023/01/30 00:15:33;;;;;;;28.50;13.60;;;;;;;0.26;100.00;100216.45;213998;1290;139018;-83
2023/01/30 00:21:41;;;;;;;30.70;14.50;;;;;;;0.24;100.00;100207.15;213321;1288;139154;-87
2023/01/30 00:27:28;;;;;;;;;;;;;;;;;;;;;
2023/01/30 00:33:33;;;;;;;29.70;14.70;;;;;;;0.21;100.00;100180.42;213769;1287;138996;-85
2023/01/30 00:39:34;;;;;;;34.90;16.10;;;;;;;0.19;100.00;100165.84;213738;1288;138800;-85
2023/01/30 00:51:35;;;;;;;26.90;14.50;;;;;;;0.16;100.00;100134.01;213527;1287;138779;-85
2023/01/30 00:57:34;;;;;;;;;;;;;;;;;;;;;
2023/01/30 01:03:26;;;;;;;23.40;11.70;;;;;;;0.15;100.00;100120.23;213354;1290;138715;-85
2023/01/30 01:09:28;;;;;;;22.10;11.00;;;;;;;0.14;100.00;100104.95;213207;1287;139305;-85
2023/01/30 01:21:29;;;;;;;26.60;12.50;;;;;;;0.14;100.00;100088.71;213397;1287;139555;-85
2023/01/30 01:45:44;;;;;;;21.70;11.10;;;;;;;0.18;100.00;100024.30;213699;1287;139802;-85
2023/01/30 01:51:51;;;;;;;22.10;10.80;;;;;;;0.19;100.00;100008.38;213327;1287;138921;-89
2023/01/30 01:57:50;;;;;;;;;;;;;;;;;;;;;
2023/01/30 02:03:43;;;;;;;;;;;;;;;;;;;;;
2023/01/30 02:09:45;;;;;;;21.40;9.80;;;;;;;0.16;100.00;99929.86;213495;1290;139393;-83
2023/01/30 02:15:47;;;;;;;22.40;10.90;;;;;;;0.17;100.00;99908.92;214117;1288;138860;-86
2023/01/30 02:22:04;;;;;;;;;;;;;;;;;;;;;
2023/01/30 02:28:14;;;;;;;;;;;;;;;;;;;;;
2023/01/30 02:34:19;;;;;;;19.70;8.70;;;;;;;0.13;100.00;99849.73;213668;1287;138646;-86
2023/01/30 02:40:23;;;;;;;21.80;10.10;;;;;;;0.12;100.00;99844.04;213381;1289;139008;-85
2023/01/30 02:46:24;;;;;;;19.50;9.80;;;;;;;0.11;100.00;99824.98;213893;1290;139343;-85
2023/01/30 02:52:29;;;;;;;;;;;;;;;;;;;;;
2023/01/30 02:58:31;;;;;;;22.40;10.20;;;;;;;0.07;100.00;99759.96;214112;1290;138467;-85
2023/01/30 03:04:34;;;;;;;20.50;9.50;;;;;;;0.07;100.00;99778.27;213573;1290;138509;-86
2023/01/30 03:10:42;;;;;;;22.70;10.20;;;;;;;0.08;100.00;99784.73;213460;1287;138491;-86
2023/01/30 03:16:43;;;;;;;21.10;10.20;;;;;;;0.08;100.00;99800.80;213817;1290;139106;-87
2023/01/30 03:22:44;;;;;;;23.50;10.70;;;;;;;0.07;100.00;99795.84;213628;1290;138900;-90
2023/01/30 03:28:37;;;;;;;22.30;11.10;;;;;;;0.06;100.00;99785.36;213735;1290;139113;-87
2023/01/30 03:34:38;;;;;;;25.60;12.80;;;;;;;0.06;100.00;99762.02;213926;1287;138549;-86
2023/01/30 03:46:37;;;;;;;26.10;12.50;;;;;;;0.06;100.00;99716.38;214001;1287;138581;-85
2023/01/30 03:52:26;;;;;;;;;;;;;;;;;;;;;
2023/01/30 03:58:20;;;;;;;25.30;11.20;;;;;;;0.03;100.00;99707.38;214193;1290;138585;-85
2023/01/30 04:04:22;;;;;;;22.70;11.30;;;;;;;0.00;100.00;99691.59;213723;1287;139539;-87
2023/01/30 04:10:20;;;;;;;;;;;;;;;;;;;;;
2023/01/30 04:16:16;;;;;;;24.90;12.20;;;;;;;-0.08;100.00;99657.70;213853;1290;139440;-86
2023/01/30 04:22:18;;;;;;;26.80;13.00;;;;;;;-0.12;100.00;99645.31;213438;1288;138768;-87
2023/01/30 04:28:11;;;;;;;25.90;12.40;;;;;;;-0.15;100.00;99637.71;214343;1286;139165;-88
2023/01/30 04:34:13;;;;;;;25.90;12.40;;;;;;;-0.21;100.00;99625.50;213790;1288;140610;-87
2023/01/30 04:40:13;;;;;;;28.90;13.90;;;;;;;-0.20;100.00;99640.60;213255;1290;142694;-85
2023/01/30 04:46:15;;;;;;;27.50;12.70;;;;;;;-0.22;100.00;99639.91;213842;1290;139051;-86
2023/01/30 04:52:06;;;;;;;30.50;13.50;;;;;;;-0.23;100.00;99612.91;213432;1290;139694;-87
2023/01/30 04:57:59;;;;;;;27.80;13.70;;;;;;;-0.24;100.00;99600.42;213656;1289;138998;-87
2023/01/30 05:04:00;;;;;;;29.50;13.20;;;;;;;-0.24;100.00;99585.52;213366;1290;139038;-87
2023/01/30 05:09:52;;;;;;;;;;;;;;;;;;;;;
2023/01/30 05:15:46;;;;;;;;;;;;;;;;;;;;;
2023/01/30 05:21:48;;;;;;;28.00;13.10;;;;;;;-0.22;100.00;99539.30;213406;1287;140248;-88
2023/01/30 05:27:48;;;;;;;32.10;13.70;;;;;;;-0.23;100.00;99520.21;213873;1288;138566;-86
2023/01/30 05:33:48;;;;;;;28.70;13.60;;;;;;;-0.24;100.00;99510.67;213224;1291;139947;-84
2023/01/30 05:39:39;;;;;;;29.60;12.60;;;;;;;-0.23;100.00;99503.81;213439;1287;139703;-86
2023/01/30 05:45:40;;;;;;;27.60;13.60;;;;;;;-0.22;100.00;99478.55;213780;1288;139125;-87
2023/01/30 05:51:41;;;;;;;26.60;13.00;;;;;;;-0.21;100.00;99470.77;213288;1290;139332;-86
2023/01/30 05:57:39;;;;;;;28.80;14.20;;;;;;;-0.21;100.00;99466.08;213667;1290;138969;-86
2023/01/30 06:03:41;;;;;;;30.60;15.60;;;;;;;-0.18;100.00;99454.60;213533;1287;139048;-87
2023/01/30 06:09:42;;;;;;;31.20;15.70;;;;;;;-0.16;100.00;99441.55;213332;1288;139292;-88
2023/01/30 06:21:47;;;;;;;32.00;14.90;;;;;;;-0.08;100.00;99438.66;213428;1290;139628;-86
2023/01/30 06:27:33;;;;;;;;;;;;;;;;;;;;;
2023/01/30 06:33:36;;;;;;;34.00;16.40;;;;;;;0.00;100.00;99423.36;213508;1288;138943;-86
2023/01/30 06:39:21;;;;;;;33.10;16.70;;;;;;;0.04;100.00;99420.48;213318;1287;138955;-86
2023/01/30 06:45:23;;;;;;;45.90;23.50;;;;;;;0.08;100.00;99417.01;213630;1288;138583;-90
2023/01/30 06:51:16;;;;;;;;;;;;;;;;;;;;;
2023/01/30 06:57:22;;;;;;;35.80;18.50;;;;;;;0.16;100.00;99394.75;214010;1287;138628;-89
2023/01/30 07:03:04;;;;;;;43.90;23.40;;;;;;;0.18;100.00;99385.51;213624;1287;138665;-87
2023/01/30 07:09:05;;;;;;;;;;;;;;;;;;;;;
2023/01/30 07:14:57;;;;;;;;;;;;;;;;;;;;;
2023/01/30 07:21:00;;;;;;;60.70;32.90;;;;;;;0.20;100.00;99357.77;213519;1290;139193;-87
2023/01/30 07:27:03;;;;;;;49.10;25.60;;;;;;;0.19;100.00;99353.89;213763;1290;138935;-87
2023/01/30 07:33:05;;;;;;;35.00;19.50;;;;;;;0.22;100.00;99355.29;213312;1292;139156;-87
2023/01/30 07:39:02;;;;;;;36.20;19.00;;;;;;;0.25;100.00;99350.13;213129;1287;138993;-87
2023/01/30 07:45:03;;;;;;;41.70;24.70;;;;;;;0.28;100.00;99334.79;213679;1292;138979;-87
2023/01/30 07:51:03;;;;;;;;;;;;;;;;;;;;;
2023/01/30 08:09:13;;;;;;;29.10;15.10;;;;;;;0.48;100.00;99329.66;213406;1291;138818;-87
2023/01/30 08:15:06;;;;;;;30.90;15.90;;;;;;;0.53;100.00;99327.03;213752;1293;138486;-86
2023/01/30 08:21:02;;;;;;;;;;;;;;;;;;;;;
2023/01/30 08:27:04;;;;;;;25.70;13.30;;;;;;;0.64;100.00;99314.54;213976;1289;138524;-86
2023/01/30 08:32:59;;;;;;;24.80;13.90;;;;;;;0.68;100.00;99305.02;213353;1289;138598;-85
2023/01/30 08:39:00;;;;;;;;;;;;;;;;;;;;;
2023/01/30 08:45:01;;;;;;;22.40;12.30;;;;;;;0.80;100.00;99295.73;214066;1292;138503;-85
2023/01/30 08:50:52;;;;;;;21.60;11.10;;;;;;;0.84;100.00;99290.05;213712;1291;138714;-85
2023/01/30 08:56:46;;;;;;;28.60;13.70;;;;;;;0.89;100.00;99284.00;213982;1292;138628;-88
2023/01/30 09:02:51;;;;;;;24.00;11.80;;;;;;;0.95;100.00;99289.48;213511;1292;140200;-86
2023/01/30 09:08:52;;;;;;;25.00;12.00;;;;;;;1.00;100.00;99293.48;213742;1293;138520;-86
2023/01/30 09:14:34;;;;;;;;;;;;;;;;;;;;;
2023/01/30 09:20:25;;;;;;;;;;;;;;;;;;;;;
2023/01/30 09:26:23;;;;;;;23.70;12.50;;;;;;;1.12;100.00;99297.09;213945;1293;106411;-86
2023/01/30 09:38:20;;;;;;;23.30;11.80;;;;;;;1.18;100.00;99286.13;214096;1292;104751;-84
2023/01/30 09:44:31;;;;;;;;;;;;;;;;;;;;;
2023/01/30 09:50:38;;;;;;;28.00;14.50;;;;;;;1.26;100.00;99272.05;213589;1292;139204;-85
2023/01/30 09:56:39;;;;;;;27.00;13.00;;;;;;;1.28;100.00;99267.68;213938;1292;105463;-85
2023/01/30 10:02:42;;;;;;;26.60;13.70;;;;;;;1.29;100.00;99266.71;213826;1292;139033;-82
2023/01/30 10:08:49;;;;;;;28.40;14.50;;;;;;;1.32;100.00;99258.06;210282;1291;5359680;-88
2023/01/30 10:14:57;;;;;;;25.10;12.80;;;;;;;1.36;100.00;99250.48;213619;1290;138272;-83
2023/01/30 10:21:16;;;;;;;28.70;13.40;;;;;;;1.41;100.00;99243.84;213303;1290;138717;-85
2023/01/30 10:27:17;;;;;;;26.30;13.30;;;;;;;1.45;100.00;99233.96;213821;1292;138457;-85
2023/01/30 10:33:28;;;;;;;23.60;12.10;;;;;;;1.51;100.00;99236.13;213210;1293;138951;-85
2023/01/30 10:39:29;;;;;;;23.50;11.30;;;;;;;1.54;100.00;99228.45;213179;1294;139084;-85
2023/01/30 10:45:30;;;;;;;23.00;12.00;;;;;;;1.56;100.00;99223.70;213815;1293;138992;-86
2023/01/30 10:51:34;;;;;;;22.00;9.90;;;;;;;1.57;100.00;99216.77;213456;1293;140145;-87
2023/01/30 10:57:53;;;;;;;;;;;;;;;;;;;;;
2023/01/30 11:04:13;;;;;;;19.00;9.20;;;;;;;1.70;100.00;99204.02;213157;1296;140633;-85
2023/01/30 11:10:17;;;;;;;21.40;10.30;;;;;;;1.74;100.00;99204.69;213050;1291;138897;-86
2023/01/30 11:16:21;;;;;;;21.30;9.90;;;;;;;1.83;100.00;99201.42;213618;1295;139985;-87
2023/01/30 11:22:24;;;;;;;27.60;11.50;;;;;;;1.90;100.00;99195.16;213327;1296;138866;-86
2023/01/30 11:28:23;;;;;;;22.50;10.30;;;;;;;1.95;100.00;99192.05;213587;1295;138475;-86
2023/01/30 11:34:24;;;;;;;18.70;8.80;;;;;;;2.01;100.00;99177.48;217759;1292;139308;-88
2023/01/30 11:40:15;;;;;;;;;;;;;;;;;;;;;
2023/01/30 11:46:07;;;;;;;17.10;8.50;;;;;;;2.16;100.00;99164.88;213954;1289;139124;-87
2023/01/30 11:52:06;;;;;;;;;;;;;;;;;;;;;
2023/01/30 11:57:58;;;;;;;;;;;;;;;;;;;;;
2023/01/30 12:04:00;;;;;;;19.50;9.80;;;;;;;2.33;100.00;99152.48;213502;1289;139004;-88
2023/01/30 12:09:49;;;;;;;18.80;8.80;;;;;;;2.39;100.00;99145.65;213667;1295;138921;-89
2023/01/30 12:15:35;;;;;;;17.70;7.80;;;;;;;2.43;100.00;99152.88;213780;1290;138322;-88
2023/01/30 12:21:55;;;;;;;16.40;8.30;;;;;;;2.46;100.00;99144.10;213439;1295;138611;-92
2023/01/30 12:27:54;;;;;;;;;;;;;;;;;;;;;
2023/01/30 12:33:54;;;;;;;;;;;;;;;;;;;;;
2023/01/30 12:40:02;;;;;;;17.80;7.30;;;;;;;2.81;100.00;99111.65;213797;1292;138552;-87
2023/01/30 12:46:05;;;;;;;;;;;;;;;;;;;;;
2023/01/30 12:52:25;;;;;;;13.90;5.60;;;;;;;2.97;100.00;99103.74;213975;1290;139716;-88
2023/01/30 12:58:25;;;;;;;;;;;;;;;;;;;;;
2023/01/30 13:04:34;;;;;;;11.70;5.00;;;;;;;3.12;100.00;99081.98;214155;1288;139140;-88
2023/01/30 13:10:22;;;;;;;;;;;;;;;;;;;;;
2023/01/30 13:16:23;;;;;;;12.70;4.90;;;;;;;3.38;100.00;99075.70;214149;1291;138901;-86
2023/01/30 13:22:46;;;;;;;10.90;4.30;;;;;;;3.51;100.00;99090.08;213635;1288;138704;-89
2023/01/30 13:28:29;;;;;;;11.20;4.00;;;;;;;3.53;100.00;99087.77;213813;1290;138417;-89
2023/01/30 13:34:30;;;;;;;9.10;4.00;;;;;;;3.54;100.00;99094.92;213735;1289;138567;-88
2023/01/30 13:40:44;;;;;;;13.90;5.30;;;;;;;3.53;100.00;99094.06;213679;1289;138258;-88
2023/01/30 13:46:39;;;;;;;10.10;3.60;;;;;;;3.52;100.00;99082.16;213663;1289;138877;-86
2023/01/30 13:52:26;;;;;;;10.40;3.80;;;;;;;3.51;100.00;99083.23;213348;1289;138623;-88
2023/01/30 13:58:23;;;;;;;12.30;4.80;;;;;;;3.52;100.00;99085.11;213964;1289;138488;-87
2023/01/30 14:03:48;;;;;;;;;;;;;;;;;;;;;
2023/01/30 14:09:36;;;;;;;;;;;;;;;;;;;;;
2023/01/30 14:15:22;;;;;;;;;;;;;;;;;;;;;
2023/01/30 14:20:59;;;;;;;;;;;;;;;3.26;100.00;99096.45;213208;1292;138572;-89
2023/01/30 14:26:45;;;;;;;12.80;4.40;;;;;;;3.12;100.00;99099.23;213929;1291;109584;-89
2023/01/30 14:32:52;;;;;;;13.20;5.60;;;;;;;3.02;100.00;99103.14;213164;1289;137983;-88
2023/01/30 14:39:12;;;;;;;18.30;5.60;;;;;;;2.95;100.00;99102.92;213884;1292;110428;-89
2023/01/30 14:45:11;;;;;;;15.00;5.00;;;;;;;2.90;100.00;99124.02;213585;1290;247092;-87
2023/01/30 14:51:19;;;;;;;15.20;5.10;;;;;;;2.88;100.00;99120.87;213302;1287;138926;-87
2023/01/30 14:57:39;;;;;;;14.70;4.40;;;;;;;2.87;100.00;99127.30;214271;1290;104453;-84
2023/01/30 15:03:33;;;;;;;14.70;4.30;;;;;;;2.86;100.00;99136.11;213379;1288;137876;-87
2023/01/30 15:09:29;;;;;;;15.00;5.60;;;;;;;2.82;100.00;99128.88;213567;1290;138777;-89
2023/01/30 15:15:13;;;;;;;13.40;4.30;;;;;;;2.80;100.00;99130.23;213967;1291;98066;-88
2023/01/30 15:21:36;;;;;;;11.60;3.80;;;;;;;2.76;100.00;99128.09;213887;1287;138440;-88
2023/01/30 15:27:34;;;;;;;13.60;3.30;;;;;;;2.78;100.00;99120.89;213552;1288;96598;-87
2023/01/30 15:33:25;;;;;;;11.20;2.90;;;;;;;2.78;100.00;99115.31;213522;1290;138437;-87
2023/01/30 15:39:25;;;;;;;9.50;3.20;;;;;;;2.78;100.00;99120.75;213570;1288;138444;-85
2023/01/30 15:45:32;;;;;;;14.60;4.70;;;;;;;2.76;100.00;99121.64;213916;1290;97648;-87
2023/01/30 15:51:32;;;;;;;9.00;2.10;;;;;;;2.74;100.00;99128.95;213745;1287;138503;-88
2023/01/30 15:57:28;;;;;;;10.20;3.30;;;;;;;2.69;100.00;99130.86;214006;1291;96656;-87
2023/01/30 16:03:32;;;;;;;;;;;;;;;;;;;;;
2023/01/30 16:09:37;;;;;;;6.80;2.50;;;;;;;2.58;100.00;99136.69;213564;1290;138704;-87
2023/01/30 16:15:37;;;;;;;10.90;3.10;;;;;;;2.54;100.00;99126.96;213851;1292;96777;-87
2023/01/30 16:21:33;;;;;;;;;;;;;;;;;;;;;
2023/01/30 16:27:36;;;;;;;14.80;3.90;;;;;;;2.49;100.00;99130.05;213860;1290;97896;-86
2023/01/30 16:33:36;;;;;;;28.30;8.70;;;;;;;2.47;100.00;99146.92;213204;1290;138340;-87
2023/01/30 16:40:08;;;;;;;12.30;4.50;;;;;;;2.47;100.00;99163.58;213470;1287;138229;-86
2023/01/30 16:45:49;;;;;;;;;;;;;;;;;;;;;
2023/01/30 16:52:01;;;;;;;15.90;4.20;;;;;;;2.34;100.00;99200.36;213501;1289;138564;-88
2023/01/30 16:58:05;;;;;;;12.30;4.40;;;;;;;2.28;100.00;99195.73;213649;1289;97597;-87
2023/01/30 17:03:55;;;;;;;22.00;7.80;;;;;;;2.24;100.00;99201.54;213453;1290;138947;-88
2023/01/30 17:10:09;;;;;;;20.50;6.30;;;;;;;2.23;100.00;99200.80;213292;1289;138678;-86
2023/01/30 17:16:11;;;;;;;15.80;6.60;;;;;;;2.21;100.00;99206.34;214733;1288;96598;-87
2023/01/30 17:21:47;;;;;;;16.00;5.30;;;;;;;2.21;100.00;99225.64;213595;1290;138360;-91
2023/01/30 17:27:44;;;;;;;12.80;3.60;;;;;;;2.20;100.00;99218.72;213909;1289;138709;-87
2023/01/30 17:33:18;;;;;;;;;;;;;;;;;;;;;
2023/01/30 17:39:13;;;;;;;12.90;4.00;;;;;;;2.15;100.00;99228.38;213591;1290;124638;-88
2023/01/30 17:45:07;;;;;;;12.20;4.10;;;;;;;2.16;100.00;99239.23;214410;1290;138611;-89
2023/01/30 17:51:08;;;;;;;12.30;3.90;;;;;;;2.16;100.00;99246.61;213394;1292;138488;-88
2023/01/30 17:57:14;;;;;;;14.90;5.20;;;;;;;2.16;100.00;99250.80;213937;1292;138723;-88
2023/01/30 18:09:00;;;;;;;15.00;5.80;;;;;;;2.20;100.00;99264.23;213821;1290;138246;-87
2023/01/30 18:15:00;;;;;;;11.70;4.60;;;;;;;2.22;100.00;99272.42;214137;1289;138629;-88
2023/01/30 18:21:01;;;;;;;16.60;6.40;;;;;;;2.27;100.00;99278.29;213546;1290;138870;-88
2023/01/30 18:26:56;;;;;;;19.50;5.90;;;;;;;2.32;100.00;99290.22;214765;1291;139072;-89
2023/01/30 18:32:57;;;;;;;17.30;6.50;;;;;;;2.36;100.00;99301.73;213785;1290;138645;-87
2023/01/30 18:38:59;;;;;;;16.30;5.20;;;;;;;2.39;100.00;99310.45;213888;1290;138236;-89
2023/01/30 18:45:01;;;;;;;;;;;;;;;;;;;;;
2023/01/30 18:51:00;;;;;;;22.40;9.60;;;;;;;2.41;100.00;99326.98;214570;1290;138503;-90
2023/01/30 19:03:13;;;;;;;20.40;8.00;;;;;;;2.46;100.00;99335.77;216708;1288;138276;-87
2023/01/30 19:44:34;;;;;;;16.60;3.90;;;;;;;2.35;100.00;99391.13;214882;1293;138434;-88
2023/01/30 19:50:47;;;;;;;18.50;5.90;;;;;;;2.37;100.00;99391.02;214324;1293;138416;-87
2023/01/30 19:57:07;;;;;;;18.70;5.30;;;;;;;2.38;100.00;99398.50;214314;1294;140505;-88
2023/01/30 20:02:44;;;;;;;;;;;;;;;;;;;;;
2023/01/30 20:08:48;;;;;;;11.30;3.50;;;;;;;2.38;100.00;99412.14;216235;1293;138321;-88
2023/01/30 20:14:41;;;;;;;13.10;2.50;;;;;;;2.35;100.00;99423.87;217200;1293;138534;-86
2023/01/30 20:20:42;;;;;;;;;;;;;;;;;;;;;
2023/01/30 20:26:46;;;;;;;17.20;4.80;;;;;;;2.40;100.00;99433.53;214227;1294;139080;-88
2023/01/30 20:32:39;;;;;;;;;;;;;;;;;;;;;
2023/01/30 20:38:48;;;;;;;14.90;5.80;;;;;;;2.44;100.00;99447.52;214545;1293;139012;-89
2023/01/30 20:44:49;;;;;;;15.30;9.10;;;;;;;2.46;100.00;99448.36;215082;1296;138817;-88
2023/01/30 20:50:42;;;;;;;;;;;;;;;;;;;;;
2023/01/30 20:56:36;;;;;;;15.60;5.00;;;;;;;2.54;100.00;99469.92;214545;1295;138548;-85
2023/01/30 21:02:35;;;;;;;;;;;;;;;;;;;;;
2023/01/30 21:08:37;;;;;;;17.40;6.90;;;;;;;2.61;100.00;99493.92;214039;1296;138584;-88
2023/01/30 21:14:10;;;;;;;;;;;;;;;;;;;;;
2023/01/30 21:20:16;;;;;;;15.40;5.10;;;;;;;2.64;100.00;99499.84;213721;1296;139947;-87
2023/01/30 21:26:17;;;;;;;15.50;4.10;;;;;;;2.66;100.00;99516.19;214232;1296;139476;-91
2023/01/30 21:32:18;;;;;;;22.20;5.80;;;;;;;2.69;100.00;99527.28;214031;1296;138570;-89
2023/01/30 21:44:19;;;;;;;19.00;6.40;;;;;;;2.70;100.00;99548.43;214116;1296;138622;-86
2023/01/30 21:50:20;;;;;;;13.00;3.10;;;;;;;2.70;100.00;99553.08;213906;1296;138774;-87
2023/01/30 21:56:21;;;;;;;15.10;3.10;;;;;;;2.68;100.00;99558.38;214566;1296;138454;-89
2023/01/30 22:02:24;;;;;;;14.00;3.50;;;;;;;2.70;100.00;99571.54;214124;1296;138508;-86
2023/01/30 22:08:49;;;;;;;27.50;5.10;;;;;;;2.72;100.00;99579.98;210611;1296;5377894;-89
2023/01/30 22:14:35;;;;;;;17.00;3.90;;;;;;;2.75;100.00;99602.91;214512;1297;139343;-90
2023/01/30 22:26:09;;;;;;;26.80;4.20;;;;;;;2.78;100.00;99610.74;213225;1293;138793;-86
2023/01/30 22:31:56;;;;;;;25.00;4.30;;;;;;;2.80;100.00;99613.42;213102;1294;139266;-86
2023/01/30 22:37:45;;;;;;;22.50;5.30;;;;;;;2.81;100.00;99611.98;213162;1294;138360;-86
2023/01/30 22:43:46;;;;;;;33.40;5.00;;;;;;;2.83;100.00;99626.00;212609;1299;138452;-85
2023/01/30 22:49:48;;;;;;;18.30;4.10;;;;;;;2.83;100.00;99624.02;212318;1293;138737;-86
2023/01/30 22:55:40;;;;;;;32.10;5.10;;;;;;;2.84;100.00;99637.56;212816;1294;138745;-86
2023/01/30 23:07:42;;;;;;;24.50;3.80;;;;;;;2.83;100.00;99644.83;213131;1293;140255;-85
2023/01/30 23:13:44;;;;;;;21.10;4.20;;;;;;;2.83;100.00;99654.62;212393;1296;138415;-86
2023/01/30 23:19:44;;;;;;;25.00;5.80;;;;;;;2.84;100.00;99656.80;212652;1296;138884;-86
2023/01/30 23:25:45;;;;;;;19.80;5.10;;;;;;;2.83;100.00;99658.80;213391;1295;138396;-87
2023/01/30 23:31:45;;;;;;;;;;;;;;;;;;;;;
2023/01/30 23:43:41;;;;;;;16.30;4.50;;;;;;;2.81;100.00;99673.79;213077;1292;138571;-87
2023/01/30 23:49:43;;;;;;;23.60;3.60;;;;;;;2.81;100.00;99682.27;212820;1292;138882;-87
2023/01/30 23:55:44;;;;;;;17.00;3.20;;;;;;;2.81;100.00;99689.33;213161;1290;138576;-86
